sensor_id;sensor_type;location;lat;lon;timestamp;P1;durP1;ratioP1;P2;durP2;ratioP2
6143;SDS011;3103;49.492;8.474;2023-03-07T00:00:04;20.10;;;11.77;;
6143;SDS011;3103;49.492;8.474;2023-03-07T00:02:33;14.60;;;9.57;;
6143;SDS011;3103;49.492;8.474;2023-03-07T00:05:00;18.23;;;10.33;;
6143;SDS011;3103;49.492;8.474;2023-03-07T00:07:27;20.60;;;11.47;;
6143;SDS011;3103;49.492;8.474;2023-03-07T00:09:53;19.97;;;10.97;;
6143;SDS011;3103;49.492;8.474;2023-03-07T00:12:20;23.83;;;14.13;;
6143;SDS011;3103;49.492;8.474;2023-03-07T00:14:47;21.27;;;11.53;;
6143;SDS011;3103;49.492;8.474;2023-03-07T00:17:14;26.60;;;12.77;;
6143;SDS011;3103;49.492;8.474;2023-03-07T00:19:41;20.43;;;12.93;;
6143;SDS011;3103;49.492;8.474;2023-03-07T00:22:09;20.90;;;10.93;;
6143;SDS011;3103;49.492;8.474;2023-03-07T00:24:39;23.63;;;13.87;;
6143;SDS011;3103;49.492;8.474;2023-03-07T00:27:06;16.37;;;10.53;;
6143;SDS011;3103;49.492;8.474;2023-03-07T00:29:34;18.20;;;10.87;;
6143;SDS011;3103;49.492;8.474;2023-03-07T00:32:00;20.50;;;11.50;;
6143;SDS011;3103;49.492;8.474;2023-03-07T00:34:27;20.40;;;10.97;;
6143;SDS011;3103;49.492;8.474;2023-03-07T00:36:54;18.90;;;10.53;;
6143;SDS011;3103;49.492;8.474;2023-03-07T00:39:21;15.87;;;10.27;;
6143;SDS011;3103;49.492;8.474;2023-03-07T00:41:48;16.90;;;10.33;;
6143;SDS011;3103;49.492;8.474;2023-03-07T00:44:14;18.03;;;10.57;;
6143;SDS011;3103;49.492;8.474;2023-03-07T00:46:41;17.80;;;10.27;;
6143;SDS011;3103;49.492;8.474;2023-03-07T00:49:08;16.23;;;10.13;;
6143;SDS011;3103;49.492;8.474;2023-03-07T00:51:35;17.00;;;10.30;;
6143;SDS011;3103;49.492;8.474;2023-03-07T00:54:02;14.90;;;10.07;;
6143;SDS011;3103;49.492;8.474;2023-03-07T00:56:29;16.40;;;9.70;;
6143;SDS011;3103;49.492;8.474;2023-03-07T00:58:56;16.73;;;11.27;;
6143;SDS011;3103;49.492;8.474;2023-03-07T01:01:23;15.73;;;9.73;;
6143;SDS011;3103;49.492;8.474;2023-03-07T01:03:51;18.90;;;10.50;;
6143;SDS011;3103;49.492;8.474;2023-03-07T01:06:20;16.13;;;10.37;;
6143;SDS011;3103;49.492;8.474;2023-03-07T01:08:50;17.53;;;9.90;;
6143;SDS011;3103;49.492;8.474;2023-03-07T01:11:16;18.03;;;10.63;;
6143;SDS011;3103;49.492;8.474;2023-03-07T01:13:44;19.83;;;10.10;;
6143;SDS011;3103;49.492;8.474;2023-03-07T01:16:13;17.90;;;10.63;;
6143;SDS011;3103;49.492;8.474;2023-03-07T01:18:42;16.83;;;10.00;;
6143;SDS011;3103;49.492;8.474;2023-03-07T01:21:18;20.63;;;10.77;;
6143;SDS011;3103;49.492;8.474;2023-03-07T01:23:48;19.27;;;10.47;;
6143;SDS011;3103;49.492;8.474;2023-03-07T01:26:16;16.10;;;9.50;;
6143;SDS011;3103;49.492;8.474;2023-03-07T01:28:48;16.63;;;10.60;;
6143;SDS011;3103;49.492;8.474;2023-03-07T01:31:16;17.40;;;9.97;;
6143;SDS011;3103;49.492;8.474;2023-03-07T01:33:45;18.30;;;10.27;;
6143;SDS011;3103;49.492;8.474;2023-03-07T01:36:20;14.93;;;9.83;;
6143;SDS011;3103;49.492;8.474;2023-03-07T01:39:05;16.43;;;9.80;;
6143;SDS011;3103;49.492;8.474;2023-03-07T01:41:38;17.93;;;10.53;;
6143;SDS011;3103;49.492;8.474;2023-03-07T01:44:13;17.77;;;9.97;;
6143;SDS011;3103;49.492;8.474;2023-03-07T01:46:48;17.00;;;11.17;;
6143;SDS011;3103;49.492;8.474;2023-03-07T01:52:07;16.43;;;10.40;;
6143;SDS011;3103;49.492;8.474;2023-03-07T01:54:41;17.03;;;10.63;;
6143;SDS011;3103;49.492;8.474;2023-03-07T01:57:20;21.17;;;11.00;;
6143;SDS011;3103;49.492;8.474;2023-03-07T01:59:50;18.67;;;10.73;;
6143;SDS011;3103;49.492;8.474;2023-03-07T02:02:21;17.07;;;10.50;;
6143;SDS011;3103;49.492;8.474;2023-03-07T02:05:00;21.70;;;12.50;;
6143;SDS011;3103;49.492;8.474;2023-03-07T02:07:34;16.37;;;11.00;;
6143;SDS011;3103;49.492;8.474;2023-03-07T02:10:07;18.93;;;10.60;;
6143;SDS011;3103;49.492;8.474;2023-03-07T02:12:35;20.53;;;11.00;;
6143;SDS011;3103;49.492;8.474;2023-03-07T02:15:03;17.50;;;9.70;;
6143;SDS011;3103;49.492;8.474;2023-03-07T02:17:31;16.07;;;9.60;;
6143;SDS011;3103;49.492;8.474;2023-03-07T02:22:29;17.23;;;10.50;;
6143;SDS011;3103;49.492;8.474;2023-03-07T02:24:57;14.80;;;9.63;;
6143;SDS011;3103;49.492;8.474;2023-03-07T02:27:30;16.93;;;10.53;;
6143;SDS011;3103;49.492;8.474;2023-03-07T02:30:01;14.67;;;9.30;;
6143;SDS011;3103;49.492;8.474;2023-03-07T02:32:30;16.80;;;9.77;;
6143;SDS011;3103;49.492;8.474;2023-03-07T02:34:56;16.67;;;10.23;;
6143;SDS011;3103;49.492;8.474;2023-03-07T02:37:33;15.33;;;9.80;;
6143;SDS011;3103;49.492;8.474;2023-03-07T02:40:05;14.37;;;9.73;;
6143;SDS011;3103;49.492;8.474;2023-03-07T02:42:38;14.83;;;8.67;;
6143;SDS011;3103;49.492;8.474;2023-03-07T02:45:12;16.57;;;9.70;;
6143;SDS011;3103;49.492;8.474;2023-03-07T02:47:42;14.87;;;8.77;;
6143;SDS011;3103;49.492;8.474;2023-03-07T02:50:12;13.10;;;8.50;;
6143;SDS011;3103;49.492;8.474;2023-03-07T02:52:42;15.07;;;9.43;;
6143;SDS011;3103;49.492;8.474;2023-03-07T02:55:09;13.80;;;9.33;;
6143;SDS011;3103;49.492;8.474;2023-03-07T02:57:40;11.20;;;7.93;;
6143;SDS011;3103;49.492;8.474;2023-03-07T03:00:07;12.07;;;8.23;;
6143;SDS011;3103;49.492;8.474;2023-03-07T03:02:37;13.67;;;9.73;;
6143;SDS011;3103;49.492;8.474;2023-03-07T03:05:04;13.40;;;8.87;;
6143;SDS011;3103;49.492;8.474;2023-03-07T03:07:31;12.67;;;7.97;;
6143;SDS011;3103;49.492;8.474;2023-03-07T03:10:00;15.97;;;9.70;;
6143;SDS011;3103;49.492;8.474;2023-03-07T03:12:29;13.50;;;9.27;;
6143;SDS011;3103;49.492;8.474;2023-03-07T03:14:57;15.03;;;9.40;;
6143;SDS011;3103;49.492;8.474;2023-03-07T03:17:24;12.83;;;8.00;;
6143;SDS011;3103;49.492;8.474;2023-03-07T03:19:50;15.37;;;9.23;;
6143;SDS011;3103;49.492;8.474;2023-03-07T03:22:17;15.70;;;9.47;;
6143;SDS011;3103;49.492;8.474;2023-03-07T03:24:46;14.23;;;9.37;;
6143;SDS011;3103;49.492;8.474;2023-03-07T03:27:15;16.30;;;10.03;;
6143;SDS011;3103;49.492;8.474;2023-03-07T03:29:43;13.93;;;9.23;;
6143;SDS011;3103;49.492;8.474;2023-03-07T03:32:11;14.60;;;9.60;;
6143;SDS011;3103;49.492;8.474;2023-03-07T03:34:40;13.13;;;8.90;;
6143;SDS011;3103;49.492;8.474;2023-03-07T03:37:07;14.50;;;9.37;;
6143;SDS011;3103;49.492;8.474;2023-03-07T03:39:34;16.07;;;8.73;;
6143;SDS011;3103;49.492;8.474;2023-03-07T03:42:01;14.87;;;9.57;;
6143;SDS011;3103;49.492;8.474;2023-03-07T03:44:28;18.20;;;9.40;;
6143;SDS011;3103;49.492;8.474;2023-03-07T03:46:56;15.20;;;9.87;;
6143;SDS011;3103;49.492;8.474;2023-03-07T03:49:23;16.73;;;10.63;;
6143;SDS011;3103;49.492;8.474;2023-03-07T03:51:52;15.60;;;9.70;;
6143;SDS011;3103;49.492;8.474;2023-03-07T03:54:19;16.93;;;10.20;;
6143;SDS011;3103;49.492;8.474;2023-03-07T03:56:46;15.93;;;9.23;;
6143;SDS011;3103;49.492;8.474;2023-03-07T03:59:12;21.40;;;10.23;;
6143;SDS011;3103;49.492;8.474;2023-03-07T04:01:40;14.90;;;9.87;;
6143;SDS011;3103;49.492;8.474;2023-03-07T04:04:07;16.43;;;9.83;;
6143;SDS011;3103;49.492;8.474;2023-03-07T04:06:34;13.20;;;8.37;;
6143;SDS011;3103;49.492;8.474;2023-03-07T04:09:01;14.30;;;9.30;;
6143;SDS011;3103;49.492;8.474;2023-03-07T04:11:30;15.73;;;9.43;;
6143;SDS011;3103;49.492;8.474;2023-03-07T04:13:58;16.13;;;9.60;;
6143;SDS011;3103;49.492;8.474;2023-03-07T04:16:24;15.70;;;9.13;;
6143;SDS011;3103;49.492;8.474;2023-03-07T04:18:52;15.53;;;9.90;;
6143;SDS011;3103;49.492;8.474;2023-03-07T04:21:20;14.47;;;10.13;;
6143;SDS011;3103;49.492;8.474;2023-03-07T04:23:49;16.63;;;9.70;;
6143;SDS011;3103;49.492;8.474;2023-03-07T04:26:22;17.37;;;9.87;;
6143;SDS011;3103;49.492;8.474;2023-03-07T04:28:49;13.33;;;9.47;;
6143;SDS011;3103;49.492;8.474;2023-03-07T04:31:26;18.57;;;8.87;;
6143;SDS011;3103;49.492;8.474;2023-03-07T04:33:56;15.43;;;8.87;;
6143;SDS011;3103;49.492;8.474;2023-03-07T04:36:23;14.97;;;9.80;;
6143;SDS011;3103;49.492;8.474;2023-03-07T04:38:51;18.43;;;10.53;;
6143;SDS011;3103;49.492;8.474;2023-03-07T04:41:19;14.67;;;9.37;;
6143;SDS011;3103;49.492;8.474;2023-03-07T04:43:52;15.40;;;10.13;;
6143;SDS011;3103;49.492;8.474;2023-03-07T04:46:21;18.00;;;11.27;;
6143;SDS011;3103;49.492;8.474;2023-03-07T04:48:48;13.47;;;8.83;;
6143;SDS011;3103;49.492;8.474;2023-03-07T04:51:16;14.77;;;9.27;;
6143;SDS011;3103;49.492;8.474;2023-03-07T04:53:43;12.77;;;8.30;;
6143;SDS011;3103;49.492;8.474;2023-03-07T04:56:10;15.07;;;9.33;;
6143;SDS011;3103;49.492;8.474;2023-03-07T04:58:39;17.03;;;10.17;;
6143;SDS011;3103;49.492;8.474;2023-03-07T05:01:06;19.20;;;10.27;;
6143;SDS011;3103;49.492;8.474;2023-03-07T05:03:34;15.33;;;9.03;;
6143;SDS011;3103;49.492;8.474;2023-03-07T05:06:03;14.50;;;9.17;;
6143;SDS011;3103;49.492;8.474;2023-03-07T05:08:35;19.43;;;9.23;;
6143;SDS011;3103;49.492;8.474;2023-03-07T05:11:02;13.57;;;9.03;;
6143;SDS011;3103;49.492;8.474;2023-03-07T05:13:30;15.87;;;9.20;;
6143;SDS011;3103;49.492;8.474;2023-03-07T05:15:57;15.20;;;8.83;;
6143;SDS011;3103;49.492;8.474;2023-03-07T05:18:26;16.07;;;9.00;;
6143;SDS011;3103;49.492;8.474;2023-03-07T05:20:55;15.80;;;9.60;;
6143;SDS011;3103;49.492;8.474;2023-03-07T05:23:22;17.83;;;10.23;;
6143;SDS011;3103;49.492;8.474;2023-03-07T05:25:50;15.83;;;8.87;;
6143;SDS011;3103;49.492;8.474;2023-03-07T05:28:17;15.77;;;9.77;;
6143;SDS011;3103;49.492;8.474;2023-03-07T05:30:44;13.20;;;8.63;;
6143;SDS011;3103;49.492;8.474;2023-03-07T05:33:12;17.70;;;9.83;;
6143;SDS011;3103;49.492;8.474;2023-03-07T05:35:40;14.83;;;9.93;;
6143;SDS011;3103;49.492;8.474;2023-03-07T05:38:08;13.20;;;8.77;;
6143;SDS011;3103;49.492;8.474;2023-03-07T05:40:36;17.40;;;9.83;;
6143;SDS011;3103;49.492;8.474;2023-03-07T05:43:03;15.30;;;8.47;;
6143;SDS011;3103;49.492;8.474;2023-03-07T05:45:30;16.13;;;8.33;;
6143;SDS011;3103;49.492;8.474;2023-03-07T05:47:58;14.90;;;9.53;;
6143;SDS011;3103;49.492;8.474;2023-03-07T05:50:25;13.73;;;9.33;;
6143;SDS011;3103;49.492;8.474;2023-03-07T05:52:52;14.63;;;8.47;;
6143;SDS011;3103;49.492;8.474;2023-03-07T05:55:22;14.80;;;9.27;;
6143;SDS011;3103;49.492;8.474;2023-03-07T05:57:49;14.60;;;9.37;;
6143;SDS011;3103;49.492;8.474;2023-03-07T06:00:16;13.27;;;8.20;;
6143;SDS011;3103;49.492;8.474;2023-03-07T06:02:51;13.07;;;7.97;;
6143;SDS011;3103;49.492;8.474;2023-03-07T06:05:18;17.43;;;8.80;;
6143;SDS011;3103;49.492;8.474;2023-03-07T06:07:45;14.33;;;9.00;;
6143;SDS011;3103;49.492;8.474;2023-03-07T06:10:13;12.77;;;9.13;;
6143;SDS011;3103;49.492;8.474;2023-03-07T06:12:40;14.33;;;8.93;;
6143;SDS011;3103;49.492;8.474;2023-03-07T06:15:07;16.67;;;9.33;;
6143;SDS011;3103;49.492;8.474;2023-03-07T06:17:34;16.03;;;8.87;;
6143;SDS011;3103;49.492;8.474;2023-03-07T06:20:02;14.73;;;8.87;;
6143;SDS011;3103;49.492;8.474;2023-03-07T06:22:30;13.33;;;9.00;;
6143;SDS011;3103;49.492;8.474;2023-03-07T06:24:57;16.70;;;8.70;;
6143;SDS011;3103;49.492;8.474;2023-03-07T06:27:24;13.00;;;8.47;;
6143;SDS011;3103;49.492;8.474;2023-03-07T06:29:51;13.40;;;8.27;;
6143;SDS011;3103;49.492;8.474;2023-03-07T06:32:18;14.73;;;8.67;;
6143;SDS011;3103;49.492;8.474;2023-03-07T06:34:44;17.03;;;8.10;;
6143;SDS011;3103;49.492;8.474;2023-03-07T06:37:11;12.37;;;8.93;;
6143;SDS011;3103;49.492;8.474;2023-03-07T06:39:39;12.23;;;7.70;;
6143;SDS011;3103;49.492;8.474;2023-03-07T06:42:05;12.10;;;7.70;;
6143;SDS011;3103;49.492;8.474;2023-03-07T06:44:33;13.00;;;8.27;;
6143;SDS011;3103;49.492;8.474;2023-03-07T06:47:00;12.07;;;8.27;;
6143;SDS011;3103;49.492;8.474;2023-03-07T06:49:27;12.83;;;8.03;;
6143;SDS011;3103;49.492;8.474;2023-03-07T06:51:53;9.83;;;7.07;;
6143;SDS011;3103;49.492;8.474;2023-03-07T06:54:20;13.43;;;8.27;;
6143;SDS011;3103;49.492;8.474;2023-03-07T06:56:47;17.03;;;8.63;;
6143;SDS011;3103;49.492;8.474;2023-03-07T06:59:18;12.27;;;7.60;;
6143;SDS011;3103;49.492;8.474;2023-03-07T07:01:45;11.33;;;7.73;;
6143;SDS011;3103;49.492;8.474;2023-03-07T07:04:14;14.77;;;7.90;;
6143;SDS011;3103;49.492;8.474;2023-03-07T07:06:41;12.07;;;6.70;;
6143;SDS011;3103;49.492;8.474;2023-03-07T07:09:09;15.63;;;8.40;;
6143;SDS011;3103;49.492;8.474;2023-03-07T07:11:37;13.00;;;7.73;;
6143;SDS011;3103;49.492;8.474;2023-03-07T07:14:08;10.27;;;7.10;;
6143;SDS011;3103;49.492;8.474;2023-03-07T07:16:36;15.97;;;8.50;;
6143;SDS011;3103;49.492;8.474;2023-03-07T07:19:04;12.80;;;7.47;;
6143;SDS011;3103;49.492;8.474;2023-03-07T07:21:31;12.40;;;7.90;;
6143;SDS011;3103;49.492;8.474;2023-03-07T07:23:58;9.93;;;6.33;;
6143;SDS011;3103;49.492;8.474;2023-03-07T07:26:25;11.83;;;6.80;;
6143;SDS011;3103;49.492;8.474;2023-03-07T07:28:52;13.60;;;7.73;;
6143;SDS011;3103;49.492;8.474;2023-03-07T07:31:19;14.03;;;7.33;;
6143;SDS011;3103;49.492;8.474;2023-03-07T07:33:45;11.43;;;6.87;;
6143;SDS011;3103;49.492;8.474;2023-03-07T07:36:14;11.60;;;7.33;;
6143;SDS011;3103;49.492;8.474;2023-03-07T07:38:41;9.23;;;6.60;;
6143;SDS011;3103;49.492;8.474;2023-03-07T07:41:08;10.80;;;7.43;;
6143;SDS011;3103;49.492;8.474;2023-03-07T07:43:35;11.57;;;7.53;;
6143;SDS011;3103;49.492;8.474;2023-03-07T07:46:24;14.73;;;7.50;;
6143;SDS011;3103;49.492;8.474;2023-03-07T07:48:54;10.67;;;7.30;;
6143;SDS011;3103;49.492;8.474;2023-03-07T07:51:21;13.03;;;6.80;;
6143;SDS011;3103;49.492;8.474;2023-03-07T07:53:48;11.03;;;6.80;;
6143;SDS011;3103;49.492;8.474;2023-03-07T07:56:14;11.60;;;6.87;;
6143;SDS011;3103;49.492;8.474;2023-03-07T07:58:41;10.63;;;7.07;;
6143;SDS011;3103;49.492;8.474;2023-03-07T08:01:14;11.70;;;6.77;;
6143;SDS011;3103;49.492;8.474;2023-03-07T08:03:43;12.00;;;7.40;;
6143;SDS011;3103;49.492;8.474;2023-03-07T08:06:11;12.15;;;8.32;;
6143;SDS011;3103;49.492;8.474;2023-03-07T08:08:38;9.17;;;6.30;;
6143;SDS011;3103;49.492;8.474;2023-03-07T08:11:05;17.50;;;7.30;;
6143;SDS011;3103;49.492;8.474;2023-03-07T08:13:32;11.27;;;6.83;;
6143;SDS011;3103;49.492;8.474;2023-03-07T08:15:59;8.57;;;6.40;;
6143;SDS011;3103;49.492;8.474;2023-03-07T08:18:25;13.27;;;6.87;;
6143;SDS011;3103;49.492;8.474;2023-03-07T08:20:52;7.60;;;5.90;;
6143;SDS011;3103;49.492;8.474;2023-03-07T08:23:18;12.13;;;7.33;;
6143;SDS011;3103;49.492;8.474;2023-03-07T08:25:45;12.90;;;7.27;;
6143;SDS011;3103;49.492;8.474;2023-03-07T08:28:12;10.13;;;7.00;;
6143;SDS011;3103;49.492;8.474;2023-03-07T08:30:38;11.43;;;7.10;;
6143;SDS011;3103;49.492;8.474;2023-03-07T08:33:05;10.97;;;6.53;;
6143;SDS011;3103;49.492;8.474;2023-03-07T08:35:32;11.60;;;7.73;;
6143;SDS011;3103;49.492;8.474;2023-03-07T08:37:59;13.63;;;6.50;;
6143;SDS011;3103;49.492;8.474;2023-03-07T08:40:27;21.10;;;8.37;;
6143;SDS011;3103;49.492;8.474;2023-03-07T08:42:54;9.10;;;6.23;;
6143;SDS011;3103;49.492;8.474;2023-03-07T08:45:22;15.20;;;7.77;;
6143;SDS011;3103;49.492;8.474;2023-03-07T08:47:53;10.93;;;7.23;;
6143;SDS011;3103;49.492;8.474;2023-03-07T08:50:25;10.77;;;7.53;;
6143;SDS011;3103;49.492;8.474;2023-03-07T08:52:53;22.30;;;12.43;;
6143;SDS011;3103;49.492;8.474;2023-03-07T08:55:20;10.43;;;6.30;;
6143;SDS011;3103;49.492;8.474;2023-03-07T08:57:47;8.43;;;6.83;;
6143;SDS011;3103;49.492;8.474;2023-03-07T09:00:13;11.87;;;7.27;;
6143;SDS011;3103;49.492;8.474;2023-03-07T09:02:40;18.23;;;10.27;;
6143;SDS011;3103;49.492;8.474;2023-03-07T09:05:07;14.50;;;9.00;;
6143;SDS011;3103;49.492;8.474;2023-03-07T09:07:35;12.67;;;7.37;;
6143;SDS011;3103;49.492;8.474;2023-03-07T09:10:01;9.73;;;6.67;;
6143;SDS011;3103;49.492;8.474;2023-03-07T09:12:28;14.77;;;8.77;;
6143;SDS011;3103;49.492;8.474;2023-03-07T09:14:55;17.27;;;7.37;;
6143;SDS011;3103;49.492;8.474;2023-03-07T09:17:22;10.27;;;6.47;;
6143;SDS011;3103;49.492;8.474;2023-03-07T09:19:49;10.13;;;6.47;;
6143;SDS011;3103;49.492;8.474;2023-03-07T09:22:16;12.20;;;7.50;;
6143;SDS011;3103;49.492;8.474;2023-03-07T09:24:43;12.70;;;8.03;;
6143;SDS011;3103;49.492;8.474;2023-03-07T09:27:10;12.90;;;8.13;;
6143;SDS011;3103;49.492;8.474;2023-03-07T09:29:36;14.33;;;6.90;;
6143;SDS011;3103;49.492;8.474;2023-03-07T09:32:03;11.77;;;6.87;;
6143;SDS011;3103;49.492;8.474;2023-03-07T09:34:30;17.23;;;9.07;;
6143;SDS011;3103;49.492;8.474;2023-03-07T09:36:57;10.37;;;6.07;;
6143;SDS011;3103;49.492;8.474;2023-03-07T09:39:24;11.37;;;7.40;;
6143;SDS011;3103;49.492;8.474;2023-03-07T09:41:54;12.50;;;6.17;;
6143;SDS011;3103;49.492;8.474;2023-03-07T09:44:32;8.23;;;5.50;;
6143;SDS011;3103;49.492;8.474;2023-03-07T09:50:53;12.20;;;7.97;;
6143;SDS011;3103;49.492;8.474;2023-03-07T09:53:35;9.30;;;6.43;;
6143;SDS011;3103;49.492;8.474;2023-03-07T09:56:14;8.93;;;6.17;;
6143;SDS011;3103;49.492;8.474;2023-03-07T09:58:46;11.63;;;7.00;;
6143;SDS011;3103;49.492;8.474;2023-03-07T10:01:18;10.67;;;6.00;;
6143;SDS011;3103;49.492;8.474;2023-03-07T10:06:32;12.70;;;6.70;;
6143;SDS011;3103;49.492;8.474;2023-03-07T10:09:04;11.10;;;5.80;;
6143;SDS011;3103;49.492;8.474;2023-03-07T10:14:40;9.80;;;5.50;;
6143;SDS011;3103;49.492;8.474;2023-03-07T10:17:41;6.30;;;3.97;;
6143;SDS011;3103;49.492;8.474;2023-03-07T10:22:56;6.47;;;5.10;;
6143;SDS011;3103;49.492;8.474;2023-03-07T10:25:32;11.07;;;5.27;;
6143;SDS011;3103;49.492;8.474;2023-03-07T10:30:51;11.77;;;5.63;;
6143;SDS011;3103;49.492;8.474;2023-03-07T10:33:23;11.00;;;5.83;;
6143;SDS011;3103;49.492;8.474;2023-03-07T10:36:35;14.43;;;6.37;;
6143;SDS011;3103;49.492;8.474;2023-03-07T10:38:50;8.30;;;5.50;;
6143;SDS011;3103;49.492;8.474;2023-03-07T10:41:25;10.87;;;6.80;;
6143;SDS011;3103;49.492;8.474;2023-03-07T10:43:52;8.00;;;5.97;;
6143;SDS011;3103;49.492;8.474;2023-03-07T10:46:21;11.47;;;5.27;;
6143;SDS011;3103;49.492;8.474;2023-03-07T10:51:39;16.77;;;7.50;;
6143;SDS011;3103;49.492;8.474;2023-03-07T10:54:16;8.70;;;5.57;;
6143;SDS011;3103;49.492;8.474;2023-03-07T10:57:01;8.07;;;5.37;;
6143;SDS011;3103;49.492;8.474;2023-03-07T10:59:30;10.50;;;5.53;;
6143;SDS011;3103;49.492;8.474;2023-03-07T11:01:58;9.27;;;5.97;;
6143;SDS011;3103;49.492;8.474;2023-03-07T11:04:27;13.07;;;7.53;;
6143;SDS011;3103;49.492;8.474;2023-03-07T11:06:57;13.07;;;6.23;;
6143;SDS011;3103;49.492;8.474;2023-03-07T11:09:32;11.33;;;6.37;;
6143;SDS011;3103;49.492;8.474;2023-03-07T11:14:30;9.23;;;5.90;;
6143;SDS011;3103;49.492;8.474;2023-03-07T11:17:19;10.03;;;5.80;;
6143;SDS011;3103;49.492;8.474;2023-03-07T11:19:51;9.07;;;5.97;;
6143;SDS011;3103;49.492;8.474;2023-03-07T11:22:23;8.67;;;5.20;;
6143;SDS011;3103;49.492;8.474;2023-03-07T11:25:03;7.87;;;5.27;;
6143;SDS011;3103;49.492;8.474;2023-03-07T11:27:39;7.97;;;5.80;;
6143;SDS011;3103;49.492;8.474;2023-03-07T11:33:07;8.43;;;5.47;;
6143;SDS011;3103;49.492;8.474;2023-03-07T11:35:57;9.17;;;5.27;;
6143;SDS011;3103;49.492;8.474;2023-03-07T11:41:24;8.53;;;5.40;;
6143;SDS011;3103;49.492;8.474;2023-03-07T11:46:55;7.80;;;5.07;;
6143;SDS011;3103;49.492;8.474;2023-03-07T11:49:42;11.63;;;4.60;;
6143;SDS011;3103;49.492;8.474;2023-03-07T11:52:13;6.50;;;4.60;;
6143;SDS011;3103;49.492;8.474;2023-03-07T12:05:59;8.70;;;5.13;;
6143;SDS011;3103;49.492;8.474;2023-03-07T12:08:39;7.43;;;4.90;;
6143;SDS011;3103;49.492;8.474;2023-03-07T12:11:16;7.10;;;4.73;;
6143;SDS011;3103;49.492;8.474;2023-03-07T12:17:04;11.70;;;4.57;;
6143;SDS011;3103;49.492;8.474;2023-03-07T12:28:09;9.63;;;5.57;;
6143;SDS011;3103;49.492;8.474;2023-03-07T12:30:52;11.83;;;5.20;;
6143;SDS011;3103;49.492;8.474;2023-03-07T12:33:26;7.00;;;4.80;;
6143;SDS011;3103;49.492;8.474;2023-03-07T12:36:05;10.57;;;4.97;;
6143;SDS011;3103;49.492;8.474;2023-03-07T12:38:46;6.93;;;4.60;;
6143;SDS011;3103;49.492;8.474;2023-03-07T12:41:41;8.10;;;4.70;;
6143;SDS011;3103;49.492;8.474;2023-03-07T12:50:07;7.03;;;4.93;;
6143;SDS011;3103;49.492;8.474;2023-03-07T12:55:45;8.07;;;4.47;;
6143;SDS011;3103;49.492;8.474;2023-03-07T12:58:34;6.80;;;5.00;;
6143;SDS011;3103;49.492;8.474;2023-03-07T13:01:17;7.47;;;4.60;;
6143;SDS011;3103;49.492;8.474;2023-03-07T13:06:36;12.43;;;4.77;;
6143;SDS011;3103;49.492;8.474;2023-03-07T13:09:05;9.13;;;6.17;;
6143;SDS011;3103;49.492;8.474;2023-03-07T13:11:33;10.03;;;5.93;;
6143;SDS011;3103;49.492;8.474;2023-03-07T13:14:00;10.77;;;6.07;;
6143;SDS011;3103;49.492;8.474;2023-03-07T13:16:36;12.33;;;6.53;;
6143;SDS011;3103;49.492;8.474;2023-03-07T13:24:40;8.63;;;5.33;;
6143;SDS011;3103;49.492;8.474;2023-03-07T13:27:15;9.87;;;5.40;;
6143;SDS011;3103;49.492;8.474;2023-03-07T13:45:57;7.27;;;5.50;;
6143;SDS011;3103;49.492;8.474;2023-03-07T14:07:11;6.57;;;4.67;;
6143;SDS011;3103;49.492;8.474;2023-03-07T14:09:45;6.80;;;5.50;;
6143;SDS011;3103;49.492;8.474;2023-03-07T14:18:11;6.03;;;4.57;;
6143;SDS011;3103;49.492;8.474;2023-03-07T14:20:49;7.23;;;4.70;;
6143;SDS011;3103;49.492;8.474;2023-03-07T14:26:31;9.67;;;5.80;;
6143;SDS011;3103;49.492;8.474;2023-03-07T14:29:15;11.80;;;7.37;;
6143;SDS011;3103;49.492;8.474;2023-03-07T14:31:44;15.77;;;10.37;;
6143;SDS011;3103;49.492;8.474;2023-03-07T14:34:28;10.90;;;7.43;;
6143;SDS011;3103;49.492;8.474;2023-03-07T14:39:58;11.47;;;7.03;;
6143;SDS011;3103;49.492;8.474;2023-03-07T14:50:31;9.40;;;6.63;;
6143;SDS011;3103;49.492;8.474;2023-03-07T14:55:49;10.63;;;5.77;;
6143;SDS011;3103;49.492;8.474;2023-03-07T14:58:24;9.40;;;5.23;;
6143;SDS011;3103;49.492;8.474;2023-03-07T15:01:02;7.87;;;4.93;;
6143;SDS011;3103;49.492;8.474;2023-03-07T15:03:30;8.03;;;5.10;;
6143;SDS011;3103;49.492;8.474;2023-03-07T15:05:58;10.97;;;6.07;;
6143;SDS011;3103;49.492;8.474;2023-03-07T15:08:28;8.00;;;4.40;;
6143;SDS011;3103;49.492;8.474;2023-03-07T15:11:05;8.03;;;5.30;;
6143;SDS011;3103;49.492;8.474;2023-03-07T15:14:03;10.37;;;6.60;;
6143;SDS011;3103;49.492;8.474;2023-03-07T15:16:37;12.60;;;7.27;;
6143;SDS011;3103;49.492;8.474;2023-03-07T15:19:13;8.17;;;5.33;;
6143;SDS011;3103;49.492;8.474;2023-03-07T15:21:54;12.73;;;8.23;;
6143;SDS011;3103;49.492;8.474;2023-03-07T15:24:32;7.77;;;5.63;;
6143;SDS011;3103;49.492;8.474;2023-03-07T15:27:01;8.73;;;5.07;;
6143;SDS011;3103;49.492;8.474;2023-03-07T15:29:30;11.10;;;6.70;;
6143;SDS011;3103;49.492;8.474;2023-03-07T15:31:59;12.73;;;7.17;;
6143;SDS011;3103;49.492;8.474;2023-03-07T15:34:34;10.33;;;6.43;;
6143;SDS011;3103;49.492;8.474;2023-03-07T15:42:50;7.13;;;4.73;;
6143;SDS011;3103;49.492;8.474;2023-03-07T15:45:35;8.93;;;5.50;;
6143;SDS011;3103;49.492;8.474;2023-03-07T15:48:13;7.20;;;4.97;;
6143;SDS011;3103;49.492;8.474;2023-03-07T15:51:01;12.13;;;5.60;;
6143;SDS011;3103;49.492;8.474;2023-03-07T15:53:41;9.33;;;5.20;;
6143;SDS011;3103;49.492;8.474;2023-03-07T15:59:04;20.83;;;10.17;;
6143;SDS011;3103;49.492;8.474;2023-03-07T16:01:35;10.60;;;6.67;;
6143;SDS011;3103;49.492;8.474;2023-03-07T16:04:02;16.20;;;9.87;;
6143;SDS011;3103;49.492;8.474;2023-03-07T16:06:30;13.10;;;6.77;;
6143;SDS011;3103;49.492;8.474;2023-03-07T16:09:04;12.03;;;7.50;;
6143;SDS011;3103;49.492;8.474;2023-03-07T16:11:32;12.00;;;6.97;;
6143;SDS011;3103;49.492;8.474;2023-03-07T16:13:59;12.40;;;6.27;;
6143;SDS011;3103;49.492;8.474;2023-03-07T16:16:27;8.07;;;5.97;;
6143;SDS011;3103;49.492;8.474;2023-03-07T16:18:55;10.03;;;5.73;;
6143;SDS011;3103;49.492;8.474;2023-03-07T16:21:24;11.13;;;7.40;;
6143;SDS011;3103;49.492;8.474;2023-03-07T16:23:51;11.83;;;7.33;;
6143;SDS011;3103;49.492;8.474;2023-03-07T16:26:19;14.47;;;8.23;;
6143;SDS011;3103;49.492;8.474;2023-03-07T16:28:48;14.43;;;9.13;;
6143;SDS011;3103;49.492;8.474;2023-03-07T16:31:16;10.97;;;6.90;;
6143;SDS011;3103;49.492;8.474;2023-03-07T16:33:44;12.53;;;8.20;;
6143;SDS011;3103;49.492;8.474;2023-03-07T16:36:12;12.00;;;7.50;;
6143;SDS011;3103;49.492;8.474;2023-03-07T16:38:40;11.67;;;6.50;;
6143;SDS011;3103;49.492;8.474;2023-03-07T16:41:17;10.03;;;6.90;;
6143;SDS011;3103;49.492;8.474;2023-03-07T16:43:55;8.27;;;5.77;;
6143;SDS011;3103;49.492;8.474;2023-03-07T16:46:23;9.30;;;6.70;;
6143;SDS011;3103;49.492;8.474;2023-03-07T16:48:51;12.97;;;6.47;;
6143;SDS011;3103;49.492;8.474;2023-03-07T16:51:19;7.80;;;5.67;;
6143;SDS011;3103;49.492;8.474;2023-03-07T16:53:47;13.43;;;6.10;;
6143;SDS011;3103;49.492;8.474;2023-03-07T16:56:22;9.50;;;5.50;;
6143;SDS011;3103;49.492;8.474;2023-03-07T16:58:52;9.53;;;6.33;;
6143;SDS011;3103;49.492;8.474;2023-03-07T17:01:19;10.07;;;6.70;;
6143;SDS011;3103;49.492;8.474;2023-03-07T17:03:46;9.60;;;5.77;;
6143;SDS011;3103;49.492;8.474;2023-03-07T17:06:13;12.63;;;5.87;;
6143;SDS011;3103;49.492;8.474;2023-03-07T17:08:42;10.77;;;6.07;;
6143;SDS011;3103;49.492;8.474;2023-03-07T17:11:17;11.13;;;6.07;;
6143;SDS011;3103;49.492;8.474;2023-03-07T17:13:46;16.10;;;7.93;;
6143;SDS011;3103;49.492;8.474;2023-03-07T17:16:15;13.80;;;6.53;;
6143;SDS011;3103;49.492;8.474;2023-03-07T17:18:42;9.73;;;6.93;;
6143;SDS011;3103;49.492;8.474;2023-03-07T17:21:13;10.77;;;6.80;;
6143;SDS011;3103;49.492;8.474;2023-03-07T17:23:42;9.13;;;5.53;;
6143;SDS011;3103;49.492;8.474;2023-03-07T17:26:13;9.83;;;6.33;;
6143;SDS011;3103;49.492;8.474;2023-03-07T17:28:44;12.70;;;7.00;;
6143;SDS011;3103;49.492;8.474;2023-03-07T17:31:12;10.50;;;6.53;;
6143;SDS011;3103;49.492;8.474;2023-03-07T17:33:38;13.53;;;7.73;;
6143;SDS011;3103;49.492;8.474;2023-03-07T17:36:07;9.37;;;6.33;;
6143;SDS011;3103;49.492;8.474;2023-03-07T17:38:37;11.93;;;6.87;;
6143;SDS011;3103;49.492;8.474;2023-03-07T17:41:04;11.23;;;7.97;;